sensor_id;sensor_type;location;lat;lon;timestamp;P1;durP1;ratioP1;P2;durP2;ratioP2
24153;SDS011;12312;53.362;-1.518;2023-01-13T00:02:13;18.00;;;2.40;;
24153;SDS011;12312;53.362;-1.518;2023-01-13T00:04:38;20.13;;;2.72;;
24153;SDS011;12312;53.362;-1.518;2023-01-13T00:07:04;18.45;;;2.20;;
24153;SDS011;12312;53.362;-1.518;2023-01-13T00:09:29;15.07;;;2.75;;
24153;SDS011;12312;53.362;-1.518;2023-01-13T00:11:55;13.05;;;2.13;;
24153;SDS011;12312;53.362;-1.518;2023-01-13T00:14:22;13.15;;;2.40;;
24153;SDS011;12312;53.362;-1.518;2023-01-13T00:16:50;18.10;;;4.10;;
24153;SDS011;12312;53.362;-1.518;2023-01-13T00:19:16;16.83;;;3.03;;
24153;SDS011;12312;53.362;-1.518;2023-01-13T00:21:42;8.68;;;1.73;;
24153;SDS011;12312;53.362;-1.518;2023-01-13T00:24:08;9.23;;;1.52;;
24153;SDS011;12312;53.362;-1.518;2023-01-13T00:26:35;6.97;;;2.03;;
24153;SDS011;12312;53.362;-1.518;2023-01-13T00:29:01;11.57;;;1.60;;
24153;SDS011;12312;53.362;-1.518;2023-01-13T00:31:27;9.27;;;2.10;;
24153;SDS011;12312;53.362;-1.518;2023-01-13T00:33:57;11.10;;;2.45;;
24153;SDS011;12312;53.362;-1.518;2023-01-13T00:36:24;5.05;;;1.55;;
24153;SDS011;12312;53.362;-1.518;2023-01-13T00:38:51;11.63;;;1.80;;
24153;SDS011;12312;53.362;-1.518;2023-01-13T00:41:17;9.02;;;1.83;;
24153;SDS011;12312;53.362;-1.518;2023-01-13T00:43:44;10.02;;;1.77;;
24153;SDS011;12312;53.362;-1.518;2023-01-13T00:46:11;9.30;;;1.77;;
24153;SDS011;12312;53.362;-1.518;2023-01-13T00:48:38;8.48;;;2.03;;
24153;SDS011;12312;53.362;-1.518;2023-01-13T00:51:09;7.57;;;2.58;;
24153;SDS011;12312;53.362;-1.518;2023-01-13T00:53:42;10.25;;;1.85;;
24153;SDS011;12312;53.362;-1.518;2023-01-13T00:56:12;14.93;;;1.98;;
24153;SDS011;12312;53.362;-1.518;2023-01-13T00:58:39;15.00;;;2.40;;
24153;SDS011;12312;53.362;-1.518;2023-01-13T01:01:09;19.02;;;2.67;;
24153;SDS011;12312;53.362;-1.518;2023-01-13T01:03:39;13.50;;;2.28;;
24153;SDS011;12312;53.362;-1.518;2023-01-13T01:06:06;14.88;;;2.40;;
24153;SDS011;12312;53.362;-1.518;2023-01-13T01:08:40;4.65;;;1.50;;
24153;SDS011;12312;53.362;-1.518;2023-01-13T01:11:07;9.05;;;2.05;;
24153;SDS011;12312;53.362;-1.518;2023-01-13T01:13:34;17.15;;;2.00;;
24153;SDS011;12312;53.362;-1.518;2023-01-13T01:16:03;15.77;;;2.22;;
24153;SDS011;12312;53.362;-1.518;2023-01-13T01:18:33;13.35;;;2.25;;
24153;SDS011;12312;53.362;-1.518;2023-01-13T01:21:00;11.10;;;2.42;;
24153;SDS011;12312;53.362;-1.518;2023-01-13T01:23:29;9.05;;;1.40;;
24153;SDS011;12312;53.362;-1.518;2023-01-13T01:26:07;17.00;;;2.00;;
24153;SDS011;12312;53.362;-1.518;2023-01-13T01:28:36;12.38;;;2.92;;
24153;SDS011;12312;53.362;-1.518;2023-01-13T01:31:07;7.45;;;1.50;;
24153;SDS011;12312;53.362;-1.518;2023-01-13T01:33:34;15.10;;;2.40;;
24153;SDS011;12312;53.362;-1.518;2023-01-13T01:36:02;16.42;;;2.40;;
24153;SDS011;12312;53.362;-1.518;2023-01-13T01:38:29;14.48;;;2.42;;
24153;SDS011;12312;53.362;-1.518;2023-01-13T01:40:55;20.50;;;3.40;;
24153;SDS011;12312;53.362;-1.518;2023-01-13T01:43:21;14.75;;;4.35;;
24153;SDS011;12312;53.362;-1.518;2023-01-13T01:46:06;12.23;;;2.45;;
24153;SDS011;12312;53.362;-1.518;2023-01-13T01:48:33;12.65;;;2.40;;
24153;SDS011;12312;53.362;-1.518;2023-01-13T01:51:07;18.77;;;3.80;;
24153;SDS011;12312;53.362;-1.518;2023-01-13T01:53:36;19.38;;;2.85;;
24153;SDS011;12312;53.362;-1.518;2023-01-13T01:56:06;22.52;;;2.53;;
24153;SDS011;12312;53.362;-1.518;2023-01-13T01:58:34;14.43;;;2.92;;
24153;SDS011;12312;53.362;-1.518;2023-01-13T02:01:06;9.93;;;1.85;;
24153;SDS011;12312;53.362;-1.518;2023-01-13T02:03:35;16.60;;;2.45;;
24153;SDS011;12312;53.362;-1.518;2023-01-13T02:06:03;21.25;;;2.65;;
24153;SDS011;12312;53.362;-1.518;2023-01-13T02:08:29;18.55;;;2.50;;
24153;SDS011;12312;53.362;-1.518;2023-01-13T02:10:54;15.80;;;1.65;;
24153;SDS011;12312;53.362;-1.518;2023-01-13T02:13:20;10.73;;;1.52;;
24153;SDS011;12312;53.362;-1.518;2023-01-13T02:15:51;16.63;;;3.17;;
24153;SDS011;12312;53.362;-1.518;2023-01-13T02:19:01;14.43;;;3.05;;
24153;SDS011;12312;53.362;-1.518;2023-01-13T02:34:00;14.27;;;3.47;;
24153;SDS011;12312;53.362;-1.518;2023-01-13T02:39:37;13.70;;;2.45;;
24153;SDS011;12312;53.362;-1.518;2023-01-13T02:42:14;7.38;;;1.67;;
24153;SDS011;12312;53.362;-1.518;2023-01-13T02:45:39;11.68;;;2.40;;
24153;SDS011;12312;53.362;-1.518;2023-01-13T02:48:16;16.98;;;3.40;;
24153;SDS011;12312;53.362;-1.518;2023-01-13T02:50:48;21.17;;;2.40;;
24153;SDS011;12312;53.362;-1.518;2023-01-13T02:53:23;9.60;;;2.05;;
24153;SDS011;12312;53.362;-1.518;2023-01-13T02:55:53;17.25;;;2.10;;
24153;SDS011;12312;53.362;-1.518;2023-01-13T02:58:23;11.60;;;2.47;;
24153;SDS011;12312;53.362;-1.518;2023-01-13T03:00:53;14.38;;;1.98;;
24153;SDS011;12312;53.362;-1.518;2023-01-13T03:03:19;13.77;;;2.35;;
24153;SDS011;12312;53.362;-1.518;2023-01-13T03:05:45;13.82;;;2.15;;
24153;SDS011;12312;53.362;-1.518;2023-01-13T03:11:15;11.23;;;1.65;;
24153;SDS011;12312;53.362;-1.518;2023-01-13T03:13:54;11.13;;;2.05;;
24153;SDS011;12312;53.362;-1.518;2023-01-13T03:16:31;13.00;;;2.22;;
24153;SDS011;12312;53.362;-1.518;2023-01-13T03:19:37;14.18;;;2.47;;
24153;SDS011;12312;53.362;-1.518;2023-01-13T03:25:21;17.55;;;2.80;;
24153;SDS011;12312;53.362;-1.518;2023-01-13T03:30:14;7.22;;;1.52;;
24153;SDS011;12312;53.362;-1.518;2023-01-13T03:35:56;6.53;;;1.67;;
24153;SDS011;12312;53.362;-1.518;2023-01-13T03:38:28;7.43;;;2.05;;
24153;SDS011;12312;53.362;-1.518;2023-01-13T03:41:02;18.88;;;3.53;;
24153;SDS011;12312;53.362;-1.518;2023-01-13T03:46:28;10.48;;;3.08;;
24153;SDS011;12312;53.362;-1.518;2023-01-13T03:49:03;14.57;;;3.00;;
24153;SDS011;12312;53.362;-1.518;2023-01-13T03:51:32;11.27;;;3.28;;
24153;SDS011;12312;53.362;-1.518;2023-01-13T03:54:04;11.85;;;3.42;;
24153;SDS011;12312;53.362;-1.518;2023-01-13T03:56:44;7.45;;;3.17;;
24153;SDS011;12312;53.362;-1.518;2023-01-13T03:59:15;11.13;;;3.25;;
24153;SDS011;12312;53.362;-1.518;2023-01-13T04:04:27;19.27;;;4.40;;
24153;SDS011;12312;53.362;-1.518;2023-01-13T04:07:03;18.43;;;4.73;;
24153;SDS011;12312;53.362;-1.518;2023-01-13T04:09:59;18.52;;;4.65;;
24153;SDS011;12312;53.362;-1.518;2023-01-13T04:12:37;14.95;;;3.63;;
24153;SDS011;12312;53.362;-1.518;2023-01-13T04:15:38;10.70;;;3.35;;
24153;SDS011;12312;53.362;-1.518;2023-01-13T04:18:09;12.10;;;4.47;;
24153;SDS011;12312;53.362;-1.518;2023-01-13T04:20:36;15.80;;;4.20;;
24153;SDS011;12312;53.362;-1.518;2023-01-13T04:23:03;14.55;;;4.30;;
24153;SDS011;12312;53.362;-1.518;2023-01-13T04:25:29;13.38;;;3.53;;
24153;SDS011;12312;53.362;-1.518;2023-01-13T04:27:54;12.82;;;3.55;;
24153;SDS011;12312;53.362;-1.518;2023-01-13T04:30:20;11.43;;;3.88;;
24153;SDS011;12312;53.362;-1.518;2023-01-13T04:32:46;15.65;;;3.55;;
24153;SDS011;12312;53.362;-1.518;2023-01-13T04:35:11;22.25;;;4.38;;
24153;SDS011;12312;53.362;-1.518;2023-01-13T04:37:37;12.50;;;4.15;;
24153;SDS011;12312;53.362;-1.518;2023-01-13T04:40:03;13.88;;;3.30;;
24153;SDS011;12312;53.362;-1.518;2023-01-13T04:42:29;12.38;;;3.10;;
24153;SDS011;12312;53.362;-1.518;2023-01-13T04:44:55;13.80;;;2.67;;
24153;SDS011;12312;53.362;-1.518;2023-01-13T04:47:21;9.25;;;2.60;;
24153;SDS011;12312;53.362;-1.518;2023-01-13T04:49:46;14.38;;;2.85;;
24153;SDS011;12312;53.362;-1.518;2023-01-13T04:52:12;8.90;;;3.28;;
24153;SDS011;12312;53.362;-1.518;2023-01-13T04:54:38;10.40;;;2.63;;
24153;SDS011;12312;53.362;-1.518;2023-01-13T04:57:04;14.45;;;2.95;;
24153;SDS011;12312;53.362;-1.518;2023-01-13T04:59:29;14.15;;;2.33;;
24153;SDS011;12312;53.362;-1.518;2023-01-13T05:01:55;10.27;;;1.90;;
24153;SDS011;12312;53.362;-1.518;2023-01-13T05:04:21;12.02;;;1.80;;
24153;SDS011;12312;53.362;-1.518;2023-01-13T05:06:46;11.57;;;1.92;;
24153;SDS011;12312;53.362;-1.518;2023-01-13T05:09:12;20.67;;;2.20;;
24153;SDS011;12312;53.362;-1.518;2023-01-13T05:11:39;11.10;;;2.33;;
24153;SDS011;12312;53.362;-1.518;2023-01-13T05:14:24;14.60;;;2.20;;
24153;SDS011;12312;53.362;-1.518;2023-01-13T05:17:09;11.82;;;2.35;;
24153;SDS011;12312;53.362;-1.518;2023-01-13T05:19:47;9.85;;;1.52;;
24153;SDS011;12312;53.362;-1.518;2023-01-13T05:22:13;13.85;;;2.60;;
24153;SDS011;12312;53.362;-1.518;2023-01-13T05:24:57;11.15;;;2.17;;
24153;SDS011;12312;53.362;-1.518;2023-01-13T05:27:41;8.40;;;1.75;;
24153;SDS011;12312;53.362;-1.518;2023-01-13T05:30:07;11.93;;;2.22;;
24153;SDS011;12312;53.362;-1.518;2023-01-13T05:32:34;12.20;;;2.28;;
24153;SDS011;12312;53.362;-1.518;2023-01-13T05:34:59;9.95;;;1.90;;
24153;SDS011;12312;53.362;-1.518;2023-01-13T05:37:25;12.13;;;2.83;;
24153;SDS011;12312;53.362;-1.518;2023-01-13T05:39:51;8.48;;;1.77;;
24153;SDS011;12312;53.362;-1.518;2023-01-13T05:42:36;9.70;;;2.17;;
24153;SDS011;12312;53.362;-1.518;2023-01-13T05:45:20;11.52;;;2.10;;
24153;SDS011;12312;53.362;-1.518;2023-01-13T05:47:45;14.95;;;2.15;;
24153;SDS011;12312;53.362;-1.518;2023-01-13T05:50:11;5.88;;;1.38;;
24153;SDS011;12312;53.362;-1.518;2023-01-13T05:52:37;11.30;;;1.95;;
24153;SDS011;12312;53.362;-1.518;2023-01-13T05:55:03;11.07;;;1.75;;
24153;SDS011;12312;53.362;-1.518;2023-01-13T05:57:28;20.90;;;2.78;;
24153;SDS011;12312;53.362;-1.518;2023-01-13T05:59:54;12.05;;;2.13;;
24153;SDS011;12312;53.362;-1.518;2023-01-13T06:02:20;12.93;;;2.47;;
24153;SDS011;12312;53.362;-1.518;2023-01-13T06:04:46;14.23;;;1.85;;
24153;SDS011;12312;53.362;-1.518;2023-01-13T06:07:11;10.18;;;1.75;;
24153;SDS011;12312;53.362;-1.518;2023-01-13T06:09:37;11.07;;;2.05;;
24153;SDS011;12312;53.362;-1.518;2023-01-13T06:12:03;16.10;;;1.92;;
24153;SDS011;12312;53.362;-1.518;2023-01-13T06:14:29;8.52;;;1.80;;
24153;SDS011;12312;53.362;-1.518;2023-01-13T06:17:13;9.60;;;1.92;;
24153;SDS011;12312;53.362;-1.518;2023-01-13T06:19:40;15.10;;;3.08;;
24153;SDS011;12312;53.362;-1.518;2023-01-13T06:24:50;11.32;;;2.25;;
24153;SDS011;12312;53.362;-1.518;2023-01-13T06:27:18;12.57;;;2.70;;
24153;SDS011;12312;53.362;-1.518;2023-01-13T06:29:45;14.02;;;2.03;;
24153;SDS011;12312;53.362;-1.518;2023-01-13T06:32:13;11.90;;;1.63;;
24153;SDS011;12312;53.362;-1.518;2023-01-13T06:34:42;9.50;;;1.48;;
24153;SDS011;12312;53.362;-1.518;2023-01-13T06:37:10;21.30;;;2.50;;
24153;SDS011;12312;53.362;-1.518;2023-01-13T06:39:39;14.02;;;2.13;;
24153;SDS011;12312;53.362;-1.518;2023-01-13T06:42:06;10.32;;;1.80;;
24153;SDS011;12312;53.362;-1.518;2023-01-13T06:44:50;14.50;;;2.47;;
24153;SDS011;12312;53.362;-1.518;2023-01-13T06:47:16;13.35;;;2.47;;
24153;SDS011;12312;53.362;-1.518;2023-01-13T06:49:42;13.57;;;1.92;;
24153;SDS011;12312;53.362;-1.518;2023-01-13T06:52:08;6.60;;;1.80;;
24153;SDS011;12312;53.362;-1.518;2023-01-13T06:54:33;12.18;;;1.55;;
24153;SDS011;12312;53.362;-1.518;2023-01-13T06:56:59;13.30;;;1.73;;
24153;SDS011;12312;53.362;-1.518;2023-01-13T06:59:25;9.20;;;1.77;;
24153;SDS011;12312;53.362;-1.518;2023-01-13T07:01:51;10.07;;;2.17;;
24153;SDS011;12312;53.362;-1.518;2023-01-13T07:04:17;9.10;;;2.20;;
24153;SDS011;12312;53.362;-1.518;2023-01-13T07:06:45;15.77;;;1.90;;
24153;SDS011;12312;53.362;-1.518;2023-01-13T07:09:11;9.75;;;1.85;;
24153;SDS011;12312;53.362;-1.518;2023-01-13T07:11:38;13.55;;;2.05;;
24153;SDS011;12312;53.362;-1.518;2023-01-13T07:14:04;11.15;;;1.85;;
24153;SDS011;12312;53.362;-1.518;2023-01-13T07:16:50;23.77;;;2.78;;
24153;SDS011;12312;53.362;-1.518;2023-01-13T07:19:19;9.88;;;2.00;;
24153;SDS011;12312;53.362;-1.518;2023-01-13T07:21:50;9.40;;;1.90;;
24153;SDS011;12312;53.362;-1.518;2023-01-13T07:24:17;13.07;;;2.20;;
24153;SDS011;12312;53.362;-1.518;2023-01-13T07:26:43;13.32;;;2.10;;
24153;SDS011;12312;53.362;-1.518;2023-01-13T07:29:09;8.95;;;2.63;;
24153;SDS011;12312;53.362;-1.518;2023-01-13T07:31:35;7.65;;;1.88;;
24153;SDS011;12312;53.362;-1.518;2023-01-13T07:34:01;13.20;;;1.70;;
24153;SDS011;12312;53.362;-1.518;2023-01-13T07:36:27;8.82;;;1.77;;
24153;SDS011;12312;53.362;-1.518;2023-01-13T07:38:53;12.20;;;1.88;;
24153;SDS011;12312;53.362;-1.518;2023-01-13T07:41:18;14.80;;;2.13;;
24153;SDS011;12312;53.362;-1.518;2023-01-13T07:44:03;7.45;;;1.85;;
24153;SDS011;12312;53.362;-1.518;2023-01-13T07:46:30;13.48;;;1.80;;
24153;SDS011;12312;53.362;-1.518;2023-01-13T07:48:56;15.27;;;1.70;;
24153;SDS011;12312;53.362;-1.518;2023-01-13T07:51:22;12.73;;;2.13;;
24153;SDS011;12312;53.362;-1.518;2023-01-13T07:53:48;13.35;;;2.25;;
24153;SDS011;12312;53.362;-1.518;2023-01-13T07:56:14;8.70;;;1.58;;
24153;SDS011;12312;53.362;-1.518;2023-01-13T07:58:40;11.38;;;2.30;;
24153;SDS011;12312;53.362;-1.518;2023-01-13T08:01:12;9.18;;;1.52;;
24153;SDS011;12312;53.362;-1.518;2023-01-13T08:03:39;6.95;;;1.65;;
24153;SDS011;12312;53.362;-1.518;2023-01-13T08:06:05;9.23;;;1.92;;
24153;SDS011;12312;53.362;-1.518;2023-01-13T08:08:31;16.33;;;2.72;;
24153;SDS011;12312;53.362;-1.518;2023-01-13T08:10:57;10.15;;;1.63;;
24153;SDS011;12312;53.362;-1.518;2023-01-13T08:13:24;13.45;;;2.20;;
24153;SDS011;12312;53.362;-1.518;2023-01-13T08:15:57;11.20;;;2.25;;
24153;SDS011;12312;53.362;-1.518;2023-01-13T08:18:25;14.80;;;1.90;;
24153;SDS011;12312;53.362;-1.518;2023-01-13T08:20:50;12.52;;;1.90;;
24153;SDS011;12312;53.362;-1.518;2023-01-13T08:23:20;14.35;;;1.83;;
24153;SDS011;12312;53.362;-1.518;2023-01-13T08:25:47;11.07;;;1.95;;
24153;SDS011;12312;53.362;-1.518;2023-01-13T08:28:14;7.35;;;1.38;;
24153;SDS011;12312;53.362;-1.518;2023-01-13T08:30:40;7.45;;;1.67;;
24153;SDS011;12312;53.362;-1.518;2023-01-13T08:33:07;9.27;;;1.80;;
24153;SDS011;12312;53.362;-1.518;2023-01-13T08:35:35;9.07;;;1.60;;
24153;SDS011;12312;53.362;-1.518;2023-01-13T08:38:02;10.10;;;2.28;;
24153;SDS011;12312;53.362;-1.518;2023-01-13T08:40:29;10.27;;;1.40;;
24153;SDS011;12312;53.362;-1.518;2023-01-13T08:42:55;12.10;;;2.05;;
24153;SDS011;12312;53.362;-1.518;2023-01-13T08:45:21;7.55;;;1.42;;
24153;SDS011;12312;53.362;-1.518;2023-01-13T08:47:47;8.52;;;1.50;;
24153;SDS011;12312;53.362;-1.518;2023-01-13T08:50:13;9.70;;;2.13;;
24153;SDS011;12312;53.362;-1.518;2023-01-13T08:52:39;11.32;;;1.95;;
24153;SDS011;12312;53.362;-1.518;2023-01-13T08:55:07;15.45;;;1.92;;
24153;SDS011;12312;53.362;-1.518;2023-01-13T08:57:33;13.13;;;1.70;;
24153;SDS011;12312;53.362;-1.518;2023-01-13T08:59:59;15.77;;;3.05;;
24153;SDS011;12312;53.362;-1.518;2023-01-13T09:02:25;5.68;;;1.70;;
24153;SDS011;12312;53.362;-1.518;2023-01-13T09:04:51;10.65;;;2.03;;
24153;SDS011;12312;53.362;-1.518;2023-01-13T09:07:18;7.65;;;1.98;;
24153;SDS011;12312;53.362;-1.518;2023-01-13T09:09:44;9.77;;;1.63;;
24153;SDS011;12312;53.362;-1.518;2023-01-13T09:12:11;13.85;;;1.92;;
24153;SDS011;12312;53.362;-1.518;2023-01-13T09:14:57;10.05;;;1.60;;
24153;SDS011;12312;53.362;-1.518;2023-01-13T09:17:24;10.45;;;2.35;;
24153;SDS011;12312;53.362;-1.518;2023-01-13T09:19:52;7.95;;;2.22;;
24153;SDS011;12312;53.362;-1.518;2023-01-13T09:22:18;11.38;;;1.75;;
24153;SDS011;12312;53.362;-1.518;2023-01-13T09:24:45;9.35;;;2.08;;
24153;SDS011;12312;53.362;-1.518;2023-01-13T09:27:12;16.65;;;2.30;;
24153;SDS011;12312;53.362;-1.518;2023-01-13T09:29:39;10.45;;;2.05;;
24153;SDS011;12312;53.362;-1.518;2023-01-13T09:32:06;9.23;;;3.03;;
24153;SDS011;12312;53.362;-1.518;2023-01-13T09:34:32;10.77;;;2.85;;
24153;SDS011;12312;53.362;-1.518;2023-01-13T09:37:17;10.97;;;2.27;;
24153;SDS011;12312;53.362;-1.518;2023-01-13T09:39:42;13.15;;;2.13;;
24153;SDS011;12312;53.362;-1.518;2023-01-13T09:47:50;19.00;;;2.58;;
24153;SDS011;12312;53.362;-1.518;2023-01-13T09:53:11;12.40;;;2.40;;
24153;SDS011;12312;53.362;-1.518;2023-01-13T09:55:44;5.20;;;1.45;;
24153;SDS011;12312;53.362;-1.518;2023-01-13T09:58:12;10.95;;;1.77;;
24153;SDS011;12312;53.362;-1.518;2023-01-13T10:00:42;10.57;;;1.60;;
24153;SDS011;12312;53.362;-1.518;2023-01-13T10:03:20;9.25;;;1.50;;
24153;SDS011;12312;53.362;-1.518;2023-01-13T10:08:23;9.43;;;1.40;;
24153;SDS011;12312;53.362;-1.518;2023-01-13T10:10:58;11.50;;;1.98;;
24153;SDS011;12312;53.362;-1.518;2023-01-13T10:13:47;11.00;;;1.83;;
24153;SDS011;12312;53.362;-1.518;2023-01-13T10:16:25;10.82;;;2.15;;
24153;SDS011;12312;53.362;-1.518;2023-01-13T10:27:27;14.23;;;2.45;;
24153;SDS011;12312;53.362;-1.518;2023-01-13T10:30:09;11.15;;;2.05;;
24153;SDS011;12312;53.362;-1.518;2023-01-13T10:32:36;9.88;;;1.52;;
24153;SDS011;12312;53.362;-1.518;2023-01-13T10:35:03;12.00;;;2.08;;
24153;SDS011;12312;53.362;-1.518;2023-01-13T10:37:29;10.75;;;2.42;;
24153;SDS011;12312;53.362;-1.518;2023-01-13T10:39:55;13.02;;;2.13;;
24153;SDS011;12312;53.362;-1.518;2023-01-13T10:42:24;9.77;;;2.35;;
24153;SDS011;12312;53.362;-1.518;2023-01-13T10:44:51;14.82;;;2.70;;
24153;SDS011;12312;53.362;-1.518;2023-01-13T10:49:58;14.55;;;2.50;;
24153;SDS011;12312;53.362;-1.518;2023-01-13T10:53:01;8.77;;;1.83;;
24153;SDS011;12312;53.362;-1.518;2023-01-13T10:55:40;7.60;;;1.58;;
24153;SDS011;12312;53.362;-1.518;2023-01-13T10:58:10;10.15;;;1.60;;
24153;SDS011;12312;53.362;-1.518;2023-01-13T11:00:36;13.88;;;1.60;;
24153;SDS011;12312;53.362;-1.518;2023-01-13T11:03:15;10.98;;;2.10;;
24153;SDS011;12312;53.362;-1.518;2023-01-13T11:05:49;8.30;;;2.33;;
24153;SDS011;12312;53.362;-1.518;2023-01-13T11:08:25;11.98;;;2.30;;
24153;SDS011;12312;53.362;-1.518;2023-01-13T11:10:54;12.48;;;1.80;;
24153;SDS011;12312;53.362;-1.518;2023-01-13T11:16:22;8.32;;;1.45;;
24153;SDS011;12312;53.362;-1.518;2023-01-13T11:18:50;9.82;;;1.73;;
24153;SDS011;12312;53.362;-1.518;2023-01-13T11:21:38;9.55;;;1.55;;
24153;SDS011;12312;53.362;-1.518;2023-01-13T11:27:21;9.77;;;1.55;;
24153;SDS011;12312;53.362;-1.518;2023-01-13T11:32:51;5.72;;;1.38;;
24153;SDS011;12312;53.362;-1.518;2023-01-13T11:35:18;11.30;;;1.55;;
24153;SDS011;12312;53.362;-1.518;2023-01-13T11:37:47;6.25;;;1.38;;
24153;SDS011;12312;53.362;-1.518;2023-01-13T11:40:24;9.07;;;1.77;;
24153;SDS011;12312;53.362;-1.518;2023-01-13T11:43:18;8.60;;;1.33;;
24153;SDS011;12312;53.362;-1.518;2023-01-13T11:45:49;7.38;;;1.20;;
24153;SDS011;12312;53.362;-1.518;2023-01-13T11:48:19;7.07;;;1.35;;
24153;SDS011;12312;53.362;-1.518;2023-01-13T11:53:42;11.80;;;1.80;;
24153;SDS011;12312;53.362;-1.518;2023-01-13T11:59:07;13.32;;;2.45;;
24153;SDS011;12312;53.362;-1.518;2023-01-13T12:04:25;9.35;;;1.83;;
24153;SDS011;12312;53.362;-1.518;2023-01-13T12:09:47;12.57;;;2.00;;
24153;SDS011;12312;53.362;-1.518;2023-01-13T12:26:06;14.65;;;2.15;;
24153;SDS011;12312;53.362;-1.518;2023-01-13T12:28:48;12.95;;;1.60;;
24153;SDS011;12312;53.362;-1.518;2023-01-13T12:31:24;9.45;;;1.63;;
24153;SDS011;12312;53.362;-1.518;2023-01-13T12:47:44;5.57;;;1.50;;
24153;SDS011;12312;53.362;-1.518;2023-01-13T12:52:54;7.82;;;1.88;;
24153;SDS011;12312;53.362;-1.518;2023-01-13T12:55:29;10.13;;;2.17;;
24153;SDS011;12312;53.362;-1.518;2023-01-13T13:01:10;7.95;;;1.60;;
24153;SDS011;12312;53.362;-1.518;2023-01-13T13:03:26;11.20;;;1.40;;
24153;SDS011;12312;53.362;-1.518;2023-01-13T13:06:08;10.00;;;2.00;;
24153;SDS011;12312;53.362;-1.518;2023-01-13T13:08:42;5.75;;;1.10;;
24153;SDS011;12312;53.362;-1.518;2023-01-13T13:17:02;9.07;;;1.70;;
24153;SDS011;12312;53.362;-1.518;2023-01-13T13:24:38;13.45;;;2.00;;
24153;SDS011;12312;53.362;-1.518;2023-01-13T13:30:01;11.60;;;1.92;;
24153;SDS011;12312;53.362;-1.518;2023-01-13T13:41:01;7.20;;;1.70;;
24153;SDS011;12312;53.362;-1.518;2023-01-13T13:43:57;11.75;;;1.52;;
24153;SDS011;12312;53.362;-1.518;2023-01-13T13:46:45;10.30;;;1.67;;
24153;SDS011;12312;53.362;-1.518;2023-01-13T13:49:19;11.88;;;2.05;;
24153;SDS011;12312;53.362;-1.518;2023-01-13T13:51:59;11.85;;;1.77;;
24153;SDS011;12312;53.362;-1.518;2023-01-13T13:54:28;14.18;;;2.97;;
24153;SDS011;12312;53.362;-1.518;2023-01-13T13:56:56;11.63;;;2.00;;
24153;SDS011;12312;53.362;-1.518;2023-01-13T13:59:27;15.45;;;2.67;;
24153;SDS011;12312;53.362;-1.518;2023-01-13T14:01:58;12.57;;;2.28;;
24153;SDS011;12312;53.362;-1.518;2023-01-13T14:04:31;12.55;;;2.30;;
24153;SDS011;12312;53.362;-1.518;2023-01-13T14:07:13;14.93;;;2.28;;
24153;SDS011;12312;53.362;-1.518;2023-01-13T14:09:44;13.85;;;2.33;;
24153;SDS011;12312;53.362;-1.518;2023-01-13T14:12:17;9.50;;;2.40;;
24153;SDS011;12312;53.362;-1.518;2023-01-13T14:14:44;16.95;;;2.53;;
24153;SDS011;12312;53.362;-1.518;2023-01-13T14:17:18;16.63;;;2.88;;
24153;SDS011;12312;53.362;-1.518;2023-01-13T14:19:54;14.32;;;2.10;;
24153;SDS011;12312;53.362;-1.518;2023-01-13T14:22:32;25.83;;;3.00;;
24153;SDS011;12312;53.362;-1.518;2023-01-13T14:24:58;15.75;;;3.10;;
24153;SDS011;12312;53.362;-1.518;2023-01-13T14:27:26;23.20;;;2.97;;
24153;SDS011;12312;53.362;-1.518;2023-01-13T14:29:54;20.77;;;3.30;;
24153;SDS011;12312;53.362;-1.518;2023-01-13T14:32:24;16.58;;;2.70;;
24153;SDS011;12312;53.362;-1.518;2023-01-13T14:34:56;20.02;;;2.47;;
24153;SDS011;12312;53.362;-1.518;2023-01-13T14:39:55;13.57;;;2.83;;
24153;SDS011;12312;53.362;-1.518;2023-01-13T14:42:22;14.63;;;2.72;;
24153;SDS011;12312;53.362;-1.518;2023-01-13T14:44:48;21.00;;;2.88;;
24153;SDS011;12312;53.362;-1.518;2023-01-13T14:49:51;20.23;;;3.13;;
24153;SDS011;12312;53.362;-1.518;2023-01-13T14:52:20;14.48;;;3.20;;
24153;SDS011;12312;53.362;-1.518;2023-01-13T14:57:15;20.23;;;2.65;;
24153;SDS011;12312;53.362;-1.518;2023-01-13T15:00:04;17.67;;;2.60;;
24153;SDS011;12312;53.362;-1.518;2023-01-13T15:02:35;19.23;;;2.78;;
24153;SDS011;12312;53.362;-1.518;2023-01-13T15:07:47;18.23;;;2.85;;
24153;SDS011;12312;53.362;-1.518;2023-01-13T15:10:18;16.65;;;2.88;;
24153;SDS011;12312;53.362;-1.518;2023-01-13T15:12:45;20.67;;;3.35;;
24153;SDS011;12312;53.362;-1.518;2023-01-13T15:15:23;15.32;;;3.95;;
24153;SDS011;12312;53.362;-1.518;2023-01-13T15:17:51;22.73;;;3.65;;
24153;SDS011;12312;53.362;-1.518;2023-01-13T15:20:19;15.05;;;2.05;;
24153;SDS011;12312;53.362;-1.518;2023-01-13T15:22:47;18.15;;;2.60;;
24153;SDS011;12312;53.362;-1.518;2023-01-13T15:25:14;28.25;;;3.45;;
24153;SDS011;12312;53.362;-1.518;2023-01-13T15:27:40;16.60;;;2.92;;
24153;SDS011;12312;53.362;-1.518;2023-01-13T15:30:12;22.92;;;3.10;;
24153;SDS011;12312;53.362;-1.518;2023-01-13T15:32:42;23.33;;;3.50;;
24153;SDS011;12312;53.362;-1.518;2023-01-13T15:35:11;24.45;;;3.60;;
24153;SDS011;12312;53.362;-1.518;2023-01-13T15:37:38;28.30;;;4.07;;
24153;SDS011;12312;53.362;-1.518;2023-01-13T15:40:05;24.20;;;3.63;;
24153;SDS011;12312;53.362;-1.518;2023-01-13T15:42:39;26.52;;;3.92;;
24153;SDS011;12312;53.362;-1.518;2023-01-13T15:45:27;22.88;;;3.88;;
24153;SDS011;12312;53.362;-1.518;2023-01-13T15:48:12;14.20;;;2.95;;
24153;SDS011;12312;53.362;-1.518;2023-01-13T15:50:38;18.67;;;3.28;;
24153;SDS011;12312;53.362;-1.518;2023-01-13T15:53:03;21.30;;;3.10;;
24153;SDS011;12312;53.362;-1.518;2023-01-13T15:55:34;16.17;;;3.05;;
24153;SDS011;12312;53.362;-1.518;2023-01-13T15:58:02;23.48;;;3.15;;
24153;SDS011;12312;53.362;-1.518;2023-01-13T16:00:28;32.08;;;4.40;;
24153;SDS011;12312;53.362;-1.518;2023-01-13T16:02:54;25.15;;;3.53;;
24153;SDS011;12312;53.362;-1.518;2023-01-13T16:05:20;21.15;;;3.55;;
24153;SDS011;12312;53.362;-1.518;2023-01-13T16:07:46;19.98;;;3.00;;
24153;SDS011;12312;53.362;-1.518;2023-01-13T16:10:16;20.48;;;3.22;;
24153;SDS011;12312;53.362;-1.518;2023-01-13T16:12:48;18.63;;;3.25;;
24153;SDS011;12312;53.362;-1.518;2023-01-13T16:15:14;24.45;;;4.18;;
24153;SDS011;12312;53.362;-1.518;2023-01-13T16:17:42;17.50;;;2.53;;
24153;SDS011;12312;53.362;-1.518;2023-01-13T16:20:14;23.65;;;3.72;;
24153;SDS011;12312;53.362;-1.518;2023-01-13T16:22:40;25.48;;;3.47;;
24153;SDS011;12312;53.362;-1.518;2023-01-13T16:25:08;24.35;;;3.10;;
24153;SDS011;12312;53.362;-1.518;2023-01-13T16:27:44;24.35;;;3.42;;
24153;SDS011;12312;53.362;-1.518;2023-01-13T16:30:32;16.77;;;2.85;;
24153;SDS011;12312;53.362;-1.518;2023-01-13T16:32:58;19.77;;;3.67;;
24153;SDS011;12312;53.362;-1.518;2023-01-13T16:35:24;19.98;;;3.90;;
24153;SDS011;12312;53.362;-1.518;2023-01-13T16:37:51;30.27;;;3.85;;
24153;SDS011;12312;53.362;-1.518;2023-01-13T16:42:49;16.00;;;3.42;;
24153;SDS011;12312;53.362;-1.518;2023-01-13T16:45:16;26.45;;;3.83;;
24153;SDS011;12312;53.362;-1.518;2023-01-13T16:47:42;25.92;;;3.33;;
24153;SDS011;12312;53.362;-1.518;2023-01-13T16:50:53;24.27;;;3.42;;
24153;SDS011;12312;53.362;-1.518;2023-01-13T16:53:06;24.38;;;4.15;;
24153;SDS011;12312;53.362;-1.518;2023-01-13T16:55:36;27.58;;;3.60;;
24153;SDS011;12312;53.362;-1.518;2023-01-13T16:58:04;29.23;;;4.80;;
24153;SDS011;12312;53.362;-1.518;2023-01-13T17:00:30;26.38;;;3.40;;
24153;SDS011;12312;53.362;-1.518;2023-01-13T17:02:56;23.88;;;3.55;;
24153;SDS011;12312;53.362;-1.518;2023-01-13T17:05:27;19.08;;;3.72;;
24153;SDS011;12312;53.362;-1.518;2023-01-13T17:07:54;28.83;;;4.68;;
24153;SDS011;12312;53.362;-1.518;2023-01-13T17:10:22;22.00;;;4.20;;